Dry Prong, LA

6:49 PM CDT on July 24, 2017 (GMT -0500)
Fairfield | | Change Station

Elev 169 ft 31.59 °N, 92.60 °W | Updated 14 minutes ago

Mostly Cloudy
Mostly Cloudy
82.5 °F
Feels Like 91 °F
N
0.0
Wind Variable Wind from North
Gusts 6.0 mph

Today
High -- | Low -- °F
--% Chance of Precip.
Yesterday
High -- | Low -- °F
Precip. -- in
Pressure 29.98 in
Visibility 10.0 miles
Clouds Clear
Heat Index 91 °F
Dew Point 77 °F
Humidity 84%
Rainfall 0.33 in
Snow Depth Not available.
6:21 AM 8:11 PM
Waxing Crescent, 3% visible
METAR KAEX 242253Z 19006KT 10SM CLR 28/24 A2997 RMK AO2 SLP150 T02830239 $
Pressure 29.98 in
Visibility 10.0 miles
Clouds Clear
Heat Index 91 °F
Dew Point 77 °F
Humidity 84%
Rainfall 0.33 in
Snow Depth Not available.
6:21 AM 8:11 PM
Waxing Crescent, 3% visible
METAR KAEX 242253Z 19006KT 10SM CLR 28/24 A2997 RMK AO2 SLP150 T02830239 $

Get Severe Weather Alerts

Thanks for signing up!

Be on the lookout for a verification email in your inbox.

You'll start receiving the daily forecast at 6 AM.

×

10-Day Weather Forecast

Almanac

Astronomy

Jul. 24, 2017 Rise Set
Actual Time
Civil Twilight
Nautical Twilight
Astronomical Twilight
Moon
Length of Visible Light
Length of Day
Tomorrow will be .
, % of the Moon is Illuminated

Today's Extremes

State Highs State Lows

Community

WunderPhotos

Category 6

Welcome to Category 6. This is the collective home for Weather Underground's featured writeups by Dr. Jeff Masters (right), Bob Henson (left), Chris Burt, and other regular contributors.

Nearby

Air Quality

  Air Quality AQ Index Pollutant
Not available.

Snow Depth

Station Depth Elevation

Earthquake Activity

City Distance Mag. Time & Date
Minimum magnitude displayed is 2.5.

Coastal Water Temperatures

Place Temperature

Stations

Nearby Weather Stations

Station Location Temp. Windchill Dew Point Humidity Wind Precip. Elev Updated Type
                   

Watches & Warnings

There are currently no watches in effect.